sensor_id;sensor_type;location;lat;lon;timestamp;temperature;humidity
7196;DHT22;3639;51.308;5.624;2022-07-06T00:02:20;13.60;99.90
7196;DHT22;3639;51.308;5.624;2022-07-06T00:04:46;13.50;99.90
7196;DHT22;3639;51.308;5.624;2022-07-06T00:07:11;13.50;99.90
7196;DHT22;3639;51.308;5.624;2022-07-06T00:09:40;13.50;99.90
7196;DHT22;3639;51.308;5.624;2022-07-06T00:12:05;13.40;99.90
7196;DHT22;3639;51.308;5.624;2022-07-06T00:14:31;13.30;99.90
7196;DHT22;3639;51.308;5.624;2022-07-06T00:16:57;13.10;99.90
7196;DHT22;3639;51.308;5.624;2022-07-06T00:19:22;13.10;99.90
7196;DHT22;3639;51.308;5.624;2022-07-06T00:21:48;13.00;99.90
7196;DHT22;3639;51.308;5.624;2022-07-06T00:24:14;12.90;99.90
7196;DHT22;3639;51.308;5.624;2022-07-06T00:26:39;12.80;99.90
7196;DHT22;3639;51.308;5.624;2022-07-06T00:29:05;12.70;99.90
7196;DHT22;3639;51.308;5.624;2022-07-06T00:31:31;12.70;99.90
7196;DHT22;3639;51.308;5.624;2022-07-06T00:33:56;12.60;99.90
7196;DHT22;3639;51.308;5.624;2022-07-06T00:36:22;12.60;99.90
7196;DHT22;3639;51.308;5.624;2022-07-06T00:38:47;12.60;99.90
7196;DHT22;3639;51.308;5.624;2022-07-06T00:41:14;12.60;99.90
7196;DHT22;3639;51.308;5.624;2022-07-06T00:43:54;12.70;99.90
7196;DHT22;3639;51.308;5.624;2022-07-06T00:46:23;12.70;99.90
7196;DHT22;3639;51.308;5.624;2022-07-06T00:48:50;12.60;99.90
7196;DHT22;3639;51.308;5.624;2022-07-06T00:51:16;12.70;99.90
7196;DHT22;3639;51.308;5.624;2022-07-06T00:53:42;12.70;99.90
7196;DHT22;3639;51.308;5.624;2022-07-06T00:56:09;12.70;99.90
7196;DHT22;3639;51.308;5.624;2022-07-06T00:58:36;12.70;99.90
7196;DHT22;3639;51.308;5.624;2022-07-06T01:01:02;12.80;99.90
7196;DHT22;3639;51.308;5.624;2022-07-06T01:03:27;12.80;99.90
7196;DHT22;3639;51.308;5.624;2022-07-06T01:05:53;12.80;99.90
7196;DHT22;3639;51.308;5.624;2022-07-06T01:08:18;12.80;99.90
7196;DHT22;3639;51.308;5.624;2022-07-06T01:10:44;12.80;99.90
7196;DHT22;3639;51.308;5.624;2022-07-06T01:13:10;12.80;99.90
7196;DHT22;3639;51.308;5.624;2022-07-06T01:15:35;12.80;99.90
7196;DHT22;3639;51.308;5.624;2022-07-06T01:18:02;12.80;99.90
7196;DHT22;3639;51.308;5.624;2022-07-06T01:20:29;12.80;99.90
7196;DHT22;3639;51.308;5.624;2022-07-06T01:22:54;12.80;99.90
7196;DHT22;3639;51.308;5.624;2022-07-06T01:25:22;12.70;99.90
7196;DHT22;3639;51.308;5.624;2022-07-06T01:27:48;12.70;99.90
7196;DHT22;3639;51.308;5.624;2022-07-06T01:30:16;12.60;99.90
7196;DHT22;3639;51.308;5.624;2022-07-06T01:32:42;12.50;99.90
7196;DHT22;3639;51.308;5.624;2022-07-06T01:35:11;12.40;99.90
7196;DHT22;3639;51.308;5.624;2022-07-06T01:37:36;12.40;99.90
7196;DHT22;3639;51.308;5.624;2022-07-06T01:40:04;12.30;99.90
7196;DHT22;3639;51.308;5.624;2022-07-06T01:42:30;12.30;99.90
7196;DHT22;3639;51.308;5.624;2022-07-06T01:44:56;12.20;99.90
7196;DHT22;3639;51.308;5.624;2022-07-06T01:47:22;12.10;99.90
7196;DHT22;3639;51.308;5.624;2022-07-06T01:49:48;12.00;99.90
7196;DHT22;3639;51.308;5.624;2022-07-06T01:52:14;12.00;99.90
7196;DHT22;3639;51.308;5.624;2022-07-06T01:54:40;12.00;99.90
7196;DHT22;3639;51.308;5.624;2022-07-06T01:57:05;12.00;99.90
7196;DHT22;3639;51.308;5.624;2022-07-06T01:59:31;11.90;99.90
7196;DHT22;3639;51.308;5.624;2022-07-06T02:01:57;11.90;99.90
7196;DHT22;3639;51.308;5.624;2022-07-06T02:04:23;11.90;99.90
7196;DHT22;3639;51.308;5.624;2022-07-06T02:06:48;11.90;99.90
7196;DHT22;3639;51.308;5.624;2022-07-06T02:09:14;11.90;99.90
7196;DHT22;3639;51.308;5.624;2022-07-06T02:11:41;11.90;99.90
7196;DHT22;3639;51.308;5.624;2022-07-06T02:14:06;11.80;99.90
7196;DHT22;3639;51.308;5.624;2022-07-06T02:16:32;11.70;99.90
7196;DHT22;3639;51.308;5.624;2022-07-06T02:18:58;11.70;99.90
7196;DHT22;3639;51.308;5.624;2022-07-06T02:21:23;11.70;99.90
7196;DHT22;3639;51.308;5.624;2022-07-06T02:23:49;11.70;99.90
7196;DHT22;3639;51.308;5.624;2022-07-06T02:26:15;11.70;99.90
7196;DHT22;3639;51.308;5.624;2022-07-06T02:28:40;11.70;99.90
7196;DHT22;3639;51.308;5.624;2022-07-06T02:31:06;11.70;99.90
7196;DHT22;3639;51.308;5.624;2022-07-06T02:33:31;11.70;99.90
7196;DHT22;3639;51.308;5.624;2022-07-06T02:35:57;11.80;99.90
7196;DHT22;3639;51.308;5.624;2022-07-06T02:38:23;11.80;99.90
7196;DHT22;3639;51.308;5.624;2022-07-06T02:40:48;11.80;99.90
7196;DHT22;3639;51.308;5.624;2022-07-06T02:43:14;11.90;99.90
7196;DHT22;3639;51.308;5.624;2022-07-06T02:45:40;11.90;99.90
7196;DHT22;3639;51.308;5.624;2022-07-06T02:48:05;11.90;99.90
7196;DHT22;3639;51.308;5.624;2022-07-06T02:50:31;12.00;99.90
7196;DHT22;3639;51.308;5.624;2022-07-06T02:52:57;11.90;99.90
7196;DHT22;3639;51.308;5.624;2022-07-06T02:55:24;11.90;99.90
7196;DHT22;3639;51.308;5.624;2022-07-06T02:57:49;11.90;99.90
7196;DHT22;3639;51.308;5.624;2022-07-06T03:00:15;11.90;99.90
7196;DHT22;3639;51.308;5.624;2022-07-06T03:02:41;11.80;99.90
7196;DHT22;3639;51.308;5.624;2022-07-06T03:05:07;11.90;99.90
7196;DHT22;3639;51.308;5.624;2022-07-06T03:07:33;11.90;99.90
7196;DHT22;3639;51.308;5.624;2022-07-06T03:09:59;11.90;99.90
7196;DHT22;3639;51.308;5.624;2022-07-06T03:12:24;11.90;99.90
7196;DHT22;3639;51.308;5.624;2022-07-06T03:14:50;11.90;99.90
7196;DHT22;3639;51.308;5.624;2022-07-06T03:17:16;11.80;99.90
7196;DHT22;3639;51.308;5.624;2022-07-06T03:19:41;11.80;99.90
7196;DHT22;3639;51.308;5.624;2022-07-06T03:22:07;11.80;99.90
7196;DHT22;3639;51.308;5.624;2022-07-06T03:24:33;11.80;99.90
7196;DHT22;3639;51.308;5.624;2022-07-06T03:26:58;11.70;99.90
7196;DHT22;3639;51.308;5.624;2022-07-06T03:29:24;11.70;99.90
7196;DHT22;3639;51.308;5.624;2022-07-06T03:31:50;11.70;99.90
7196;DHT22;3639;51.308;5.624;2022-07-06T03:34:15;11.70;99.90
7196;DHT22;3639;51.308;5.624;2022-07-06T03:36:41;11.70;99.90
7196;DHT22;3639;51.308;5.624;2022-07-06T03:39:06;11.70;99.90
7196;DHT22;3639;51.308;5.624;2022-07-06T03:41:32;11.70;99.90
7196;DHT22;3639;51.308;5.624;2022-07-06T03:43:58;11.70;99.90
7196;DHT22;3639;51.308;5.624;2022-07-06T03:46:24;11.70;99.90
7196;DHT22;3639;51.308;5.624;2022-07-06T03:48:50;11.70;99.90
7196;DHT22;3639;51.308;5.624;2022-07-06T03:51:16;11.70;99.90
7196;DHT22;3639;51.308;5.624;2022-07-06T03:53:41;11.80;99.90
7196;DHT22;3639;51.308;5.624;2022-07-06T03:56:07;11.80;99.90
7196;DHT22;3639;51.308;5.624;2022-07-06T03:58:51;11.90;99.90
7196;DHT22;3639;51.308;5.624;2022-07-06T04:01:17;11.80;99.90
7196;DHT22;3639;51.308;5.624;2022-07-06T04:03:42;11.80;99.90
7196;DHT22;3639;51.308;5.624;2022-07-06T04:06:10;11.80;99.90
7196;DHT22;3639;51.308;5.624;2022-07-06T04:08:35;11.80;99.90
7196;DHT22;3639;51.308;5.624;2022-07-06T04:11:01;11.80;99.90
7196;DHT22;3639;51.308;5.624;2022-07-06T04:13:27;11.80;99.90
7196;DHT22;3639;51.308;5.624;2022-07-06T04:15:52;11.80;99.90
7196;DHT22;3639;51.308;5.624;2022-07-06T04:18:18;11.80;99.90
7196;DHT22;3639;51.308;5.624;2022-07-06T04:20:43;11.80;99.90
7196;DHT22;3639;51.308;5.624;2022-07-06T04:23:09;11.80;99.90
7196;DHT22;3639;51.308;5.624;2022-07-06T04:25:35;11.80;99.90
7196;DHT22;3639;51.308;5.624;2022-07-06T04:28:00;11.80;99.90
7196;DHT22;3639;51.308;5.624;2022-07-06T04:30:26;11.90;99.90
7196;DHT22;3639;51.308;5.624;2022-07-06T04:32:52;11.90;99.90
7196;DHT22;3639;51.308;5.624;2022-07-06T04:35:18;11.90;99.90
7196;DHT22;3639;51.308;5.624;2022-07-06T04:37:44;11.90;99.90
7196;DHT22;3639;51.308;5.624;2022-07-06T04:40:11;11.90;99.90
7196;DHT22;3639;51.308;5.624;2022-07-06T04:42:38;11.90;99.90
7196;DHT22;3639;51.308;5.624;2022-07-06T04:45:04;11.90;99.90
7196;DHT22;3639;51.308;5.624;2022-07-06T04:47:30;11.90;99.90
7196;DHT22;3639;51.308;5.624;2022-07-06T04:49:55;11.90;99.90
7196;DHT22;3639;51.308;5.624;2022-07-06T04:52:21;12.00;99.90
7196;DHT22;3639;51.308;5.624;2022-07-06T04:54:47;12.00;99.90
7196;DHT22;3639;51.308;5.624;2022-07-06T04:57:12;12.00;99.90
7196;DHT22;3639;51.308;5.624;2022-07-06T04:59:38;12.10;99.90
7196;DHT22;3639;51.308;5.624;2022-07-06T05:02:04;12.10;99.90
7196;DHT22;3639;51.308;5.624;2022-07-06T05:04:30;12.20;99.90
7196;DHT22;3639;51.308;5.624;2022-07-06T05:06:55;12.20;99.90
7196;DHT22;3639;51.308;5.624;2022-07-06T05:09:21;12.30;99.90
7196;DHT22;3639;51.308;5.624;2022-07-06T05:11:46;12.40;99.90
7196;DHT22;3639;51.308;5.624;2022-07-06T05:14:12;12.50;99.90
7196;DHT22;3639;51.308;5.624;2022-07-06T05:16:38;12.50;99.90
7196;DHT22;3639;51.308;5.624;2022-07-06T05:19:03;12.60;99.90
7196;DHT22;3639;51.308;5.624;2022-07-06T05:21:29;12.70;99.90
7196;DHT22;3639;51.308;5.624;2022-07-06T05:23:55;12.80;99.90
7196;DHT22;3639;51.308;5.624;2022-07-06T05:26:20;13.10;99.90
7196;DHT22;3639;51.308;5.624;2022-07-06T05:28:46;13.20;99.90
7196;DHT22;3639;51.308;5.624;2022-07-06T05:31:12;13.30;99.90
7196;DHT22;3639;51.308;5.624;2022-07-06T05:33:37;13.40;99.90
7196;DHT22;3639;51.308;5.624;2022-07-06T05:36:03;13.50;99.90
7196;DHT22;3639;51.308;5.624;2022-07-06T05:38:29;13.60;99.90
7196;DHT22;3639;51.308;5.624;2022-07-06T05:40:55;13.80;99.90
7196;DHT22;3639;51.308;5.624;2022-07-06T05:43:20;13.90;99.90
7196;DHT22;3639;51.308;5.624;2022-07-06T05:45:46;14.10;99.90
7196;DHT22;3639;51.308;5.624;2022-07-06T05:48:12;14.20;99.90
7196;DHT22;3639;51.308;5.624;2022-07-06T05:50:56;14.30;99.90
7196;DHT22;3639;51.308;5.624;2022-07-06T05:53:21;14.30;99.90
7196;DHT22;3639;51.308;5.624;2022-07-06T05:55:47;14.50;99.90
7196;DHT22;3639;51.308;5.624;2022-07-06T05:58:13;14.60;99.90
7196;DHT22;3639;51.308;5.624;2022-07-06T06:00:38;14.70;99.90
7196;DHT22;3639;51.308;5.624;2022-07-06T06:03:04;14.80;99.90
7196;DHT22;3639;51.308;5.624;2022-07-06T06:05:32;14.90;99.90
7196;DHT22;3639;51.308;5.624;2022-07-06T06:07:58;15.00;99.90
7196;DHT22;3639;51.308;5.624;2022-07-06T06:10:32;15.00;99.90
7196;DHT22;3639;51.308;5.624;2022-07-06T06:12:58;15.20;99.90
7196;DHT22;3639;51.308;5.624;2022-07-06T06:15:24;15.30;99.90
7196;DHT22;3639;51.308;5.624;2022-07-06T06:17:51;15.40;99.90
7196;DHT22;3639;51.308;5.624;2022-07-06T06:20:17;15.50;99.90
7196;DHT22;3639;51.308;5.624;2022-07-06T06:22:59;15.70;99.90
7196;DHT22;3639;51.308;5.624;2022-07-06T06:25:37;15.90;99.90
7196;DHT22;3639;51.308;5.624;2022-07-06T06:28:09;16.10;99.90
7196;DHT22;3639;51.308;5.624;2022-07-06T06:30:53;16.20;99.90
7196;DHT22;3639;51.308;5.624;2022-07-06T06:33:28;16.40;99.90
7196;DHT22;3639;51.308;5.624;2022-07-06T06:35:56;16.60;99.90
7196;DHT22;3639;51.308;5.624;2022-07-06T06:38:23;16.70;99.90
7196;DHT22;3639;51.308;5.624;2022-07-06T06:41:04;16.80;99.90
7196;DHT22;3639;51.308;5.624;2022-07-06T06:43:31;16.90;99.90
7196;DHT22;3639;51.308;5.624;2022-07-06T06:45:59;16.90;99.90
7196;DHT22;3639;51.308;5.624;2022-07-06T06:48:27;17.00;99.90
7196;DHT22;3639;51.308;5.624;2022-07-06T06:51:06;16.90;99.90
7196;DHT22;3639;51.308;5.624;2022-07-06T06:53:35;17.00;99.90
7196;DHT22;3639;51.308;5.624;2022-07-06T06:56:12;17.00;99.90
7196;DHT22;3639;51.308;5.624;2022-07-06T06:58:48;17.10;99.90
7196;DHT22;3639;51.308;5.624;2022-07-06T07:01:14;17.20;99.90
7196;DHT22;3639;51.308;5.624;2022-07-06T07:03:45;17.30;99.90
7196;DHT22;3639;51.308;5.624;2022-07-06T07:06:16;17.30;99.90
7196;DHT22;3639;51.308;5.624;2022-07-06T07:08:51;17.40;99.90
7196;DHT22;3639;51.308;5.624;2022-07-06T07:11:22;17.60;99.90
7196;DHT22;3639;51.308;5.624;2022-07-06T07:13:48;17.70;99.90
7196;DHT22;3639;51.308;5.624;2022-07-06T07:16:35;17.80;99.90
7196;DHT22;3639;51.308;5.624;2022-07-06T07:19:08;17.90;99.90
7196;DHT22;3639;51.308;5.624;2022-07-06T07:21:37;17.80;99.90
7196;DHT22;3639;51.308;5.624;2022-07-06T07:24:04;18.00;99.90
7196;DHT22;3639;51.308;5.624;2022-07-06T07:26:34;18.10;99.50
7196;DHT22;3639;51.308;5.624;2022-07-06T07:29:08;18.10;99.70
7196;DHT22;3639;51.308;5.624;2022-07-06T07:31:49;18.40;99.80
7196;DHT22;3639;51.308;5.624;2022-07-06T07:34:15;18.70;98.10
7196;DHT22;3639;51.308;5.624;2022-07-06T07:36:41;18.90;97.40
7196;DHT22;3639;51.308;5.624;2022-07-06T07:39:07;18.80;96.90
7196;DHT22;3639;51.308;5.624;2022-07-06T07:41:33;18.50;96.90
7196;DHT22;3639;51.308;5.624;2022-07-06T07:44:00;18.30;96.80
7196;DHT22;3639;51.308;5.624;2022-07-06T07:46:27;18.10;97.50
7196;DHT22;3639;51.308;5.624;2022-07-06T07:48:58;18.00;97.90
7196;DHT22;3639;51.308;5.624;2022-07-06T07:51:35;18.00;98.10
7196;DHT22;3639;51.308;5.624;2022-07-06T07:54:01;18.00;98.50
7196;DHT22;3639;51.308;5.624;2022-07-06T07:56:26;18.20;98.50
7196;DHT22;3639;51.308;5.624;2022-07-06T07:58:55;18.60;97.40
7196;DHT22;3639;51.308;5.624;2022-07-06T08:01:21;18.80;96.70
7196;DHT22;3639;51.308;5.624;2022-07-06T08:03:50;18.90;96.80
7196;DHT22;3639;51.308;5.624;2022-07-06T08:06:17;19.20;96.60
7196;DHT22;3639;51.308;5.624;2022-07-06T08:08:42;19.40;96.30
7196;DHT22;3639;51.308;5.624;2022-07-06T08:11:08;19.40;95.80
7196;DHT22;3639;51.308;5.624;2022-07-06T08:13:35;19.50;96.10
7196;DHT22;3639;51.308;5.624;2022-07-06T08:16:02;19.70;95.90
7196;DHT22;3639;51.308;5.624;2022-07-06T08:18:27;19.90;95.90
7196;DHT22;3639;51.308;5.624;2022-07-06T08:20:53;20.10;95.20
7196;DHT22;3639;51.308;5.624;2022-07-06T08:23:22;20.10;95.00
7196;DHT22;3639;51.308;5.624;2022-07-06T08:25:48;20.00;95.20
7196;DHT22;3639;51.308;5.624;2022-07-06T08:28:13;20.00;94.80
7196;DHT22;3639;51.308;5.624;2022-07-06T08:30:39;20.20;95.10
7196;DHT22;3639;51.308;5.624;2022-07-06T08:33:04;19.90;95.10
7196;DHT22;3639;51.308;5.624;2022-07-06T08:35:30;19.80;94.90
7196;DHT22;3639;51.308;5.624;2022-07-06T08:37:56;19.70;94.70
7196;DHT22;3639;51.308;5.624;2022-07-06T08:40:22;19.70;94.70
7196;DHT22;3639;51.308;5.624;2022-07-06T08:42:55;19.90;95.10
7196;DHT22;3639;51.308;5.624;2022-07-06T08:45:22;20.20;93.40
7196;DHT22;3639;51.308;5.624;2022-07-06T08:47:49;20.40;93.50
7196;DHT22;3639;51.308;5.624;2022-07-06T08:50:15;20.70;93.40
7196;DHT22;3639;51.308;5.624;2022-07-06T08:52:41;20.90;93.10
7196;DHT22;3639;51.308;5.624;2022-07-06T08:55:10;21.10;93.00
7196;DHT22;3639;51.308;5.624;2022-07-06T08:57:37;21.20;92.70
7196;DHT22;3639;51.308;5.624;2022-07-06T09:00:09;21.30;92.90
7196;DHT22;3639;51.308;5.624;2022-07-06T09:02:36;21.10;92.10
7196;DHT22;3639;51.308;5.624;2022-07-06T09:05:03;21.10;92.50
7196;DHT22;3639;51.308;5.624;2022-07-06T09:07:29;21.10;91.80
7196;DHT22;3639;51.308;5.624;2022-07-06T09:09:56;20.90;91.60
7196;DHT22;3639;51.308;5.624;2022-07-06T09:12:26;20.80;92.60
7196;DHT22;3639;51.308;5.624;2022-07-06T09:14:55;21.00;91.80
7196;DHT22;3639;51.308;5.624;2022-07-06T09:17:26;21.10;91.90
7196;DHT22;3639;51.308;5.624;2022-07-06T09:19:53;21.20;91.70
7196;DHT22;3639;51.308;5.624;2022-07-06T09:22:31;21.50;90.50
7196;DHT22;3639;51.308;5.624;2022-07-06T09:27:42;21.80;90.70
7196;DHT22;3639;51.308;5.624;2022-07-06T09:30:09;21.80;90.30
7196;DHT22;3639;51.308;5.624;2022-07-06T09:32:43;21.80;90.40
7196;DHT22;3639;51.308;5.624;2022-07-06T09:35:21;21.80;91.00
7196;DHT22;3639;51.308;5.624;2022-07-06T09:37:47;21.50;91.40
7196;DHT22;3639;51.308;5.624;2022-07-06T09:40:19;21.20;90.90
7196;DHT22;3639;51.308;5.624;2022-07-06T09:42:45;21.10;91.40
7196;DHT22;3639;51.308;5.624;2022-07-06T09:45:11;21.10;91.80
7196;DHT22;3639;51.308;5.624;2022-07-06T09:47:37;21.10;91.60
7196;DHT22;3639;51.308;5.624;2022-07-06T09:50:06;21.30;91.10
7196;DHT22;3639;51.308;5.624;2022-07-06T09:52:35;21.60;91.10
7196;DHT22;3639;51.308;5.624;2022-07-06T09:55:05;21.80;90.10
7196;DHT22;3639;51.308;5.624;2022-07-06T09:57:31;22.00;89.50
7196;DHT22;3639;51.308;5.624;2022-07-06T09:59:58;22.10;87.80
7196;DHT22;3639;51.308;5.624;2022-07-06T10:02:24;22.20;88.10
7196;DHT22;3639;51.308;5.624;2022-07-06T10:04:52;22.40;88.60
7196;DHT22;3639;51.308;5.624;2022-07-06T10:07:21;22.60;87.50
7196;DHT22;3639;51.308;5.624;2022-07-06T10:09:50;22.60;88.30
7196;DHT22;3639;51.308;5.624;2022-07-06T10:12:17;22.70;88.90
7196;DHT22;3639;51.308;5.624;2022-07-06T10:14:44;22.80;87.70
7196;DHT22;3639;51.308;5.624;2022-07-06T10:17:10;22.80;87.70
7196;DHT22;3639;51.308;5.624;2022-07-06T10:19:36;22.80;84.70
7196;DHT22;3639;51.308;5.624;2022-07-06T10:22:03;22.70;85.40
7196;DHT22;3639;51.308;5.624;2022-07-06T10:24:30;22.70;83.30
7196;DHT22;3639;51.308;5.624;2022-07-06T10:26:56;22.70;84.70
7196;DHT22;3639;51.308;5.624;2022-07-06T10:29:23;22.80;84.90
7196;DHT22;3639;51.308;5.624;2022-07-06T10:31:49;23.00;85.80
7196;DHT22;3639;51.308;5.624;2022-07-06T10:34:18;23.10;85.20
7196;DHT22;3639;51.308;5.624;2022-07-06T10:36:48;23.10;85.20
7196;DHT22;3639;51.308;5.624;2022-07-06T10:39:14;22.90;86.30
7196;DHT22;3639;51.308;5.624;2022-07-06T10:41:58;22.70;86.50
7196;DHT22;3639;51.308;5.624;2022-07-06T10:44:25;22.40;86.90
7196;DHT22;3639;51.308;5.624;2022-07-06T10:46:56;22.40;88.60
7196;DHT22;3639;51.308;5.624;2022-07-06T10:49:23;22.30;86.60
7196;DHT22;3639;51.308;5.624;2022-07-06T10:51:49;22.30;87.80
7196;DHT22;3639;51.308;5.624;2022-07-06T10:54:17;22.50;87.70
7196;DHT22;3639;51.308;5.624;2022-07-06T10:56:46;22.70;86.90
7196;DHT22;3639;51.308;5.624;2022-07-06T10:59:16;22.80;86.60
7196;DHT22;3639;51.308;5.624;2022-07-06T11:04:37;22.80;86.60
7196;DHT22;3639;51.308;5.624;2022-07-06T11:07:22;22.90;86.30
7196;DHT22;3639;51.308;5.624;2022-07-06T11:09:58;23.00;87.30
7196;DHT22;3639;51.308;5.624;2022-07-06T11:12:24;23.00;87.00
7196;DHT22;3639;51.308;5.624;2022-07-06T11:14:51;23.30;85.20
7196;DHT22;3639;51.308;5.624;2022-07-06T11:17:18;23.30;84.10
7196;DHT22;3639;51.308;5.624;2022-07-06T11:22:21;23.50;83.90
7196;DHT22;3639;51.308;5.624;2022-07-06T11:24:50;23.70;84.30
7196;DHT22;3639;51.308;5.624;2022-07-06T11:27:17;23.90;82.10
7196;DHT22;3639;51.308;5.624;2022-07-06T11:29:43;23.80;82.70
7196;DHT22;3639;51.308;5.624;2022-07-06T11:32:11;23.80;82.90
7196;DHT22;3639;51.308;5.624;2022-07-06T11:34:42;23.60;83.20
7196;DHT22;3639;51.308;5.624;2022-07-06T11:37:10;23.60;84.00
7196;DHT22;3639;51.308;5.624;2022-07-06T11:39:41;23.70;84.20
7196;DHT22;3639;51.308;5.624;2022-07-06T11:42:08;23.90;82.60
7196;DHT22;3639;51.308;5.624;2022-07-06T11:44:34;24.00;81.80
7196;DHT22;3639;51.308;5.624;2022-07-06T11:47:01;24.10;82.10
7196;DHT22;3639;51.308;5.624;2022-07-06T11:49:31;24.00;81.60
7196;DHT22;3639;51.308;5.624;2022-07-06T11:51:58;23.70;81.50
7196;DHT22;3639;51.308;5.624;2022-07-06T11:54:24;23.40;82.90
7196;DHT22;3639;51.308;5.624;2022-07-06T11:56:58;23.30;82.70
7196;DHT22;3639;51.308;5.624;2022-07-06T11:59:34;23.20;83.00
7196;DHT22;3639;51.308;5.624;2022-07-06T12:02:14;23.20;82.80
7196;DHT22;3639;51.308;5.624;2022-07-06T12:04:43;23.10;81.60
7196;DHT22;3639;51.308;5.624;2022-07-06T12:07:11;23.10;81.80
7196;DHT22;3639;51.308;5.624;2022-07-06T12:09:38;22.90;81.70
7196;DHT22;3639;51.308;5.624;2022-07-06T12:12:05;23.10;82.30
7196;DHT22;3639;51.308;5.624;2022-07-06T12:14:33;23.50;83.40
7196;DHT22;3639;51.308;5.624;2022-07-06T12:17:17;23.80;80.50
7196;DHT22;3639;51.308;5.624;2022-07-06T12:19:43;23.90;79.70
7196;DHT22;3639;51.308;5.624;2022-07-06T12:22:09;24.00;80.20
7196;DHT22;3639;51.308;5.624;2022-07-06T12:24:37;24.30;81.60
7196;DHT22;3639;51.308;5.624;2022-07-06T12:27:17;24.50;78.10
7196;DHT22;3639;51.308;5.624;2022-07-06T12:29:43;24.60;78.20
7196;DHT22;3639;51.308;5.624;2022-07-06T12:32:20;24.30;78.60
7196;DHT22;3639;51.308;5.624;2022-07-06T12:35:02;24.20;78.80
7196;DHT22;3639;51.308;5.624;2022-07-06T12:37:28;24.20;80.30
7196;DHT22;3639;51.308;5.624;2022-07-06T12:39:54;24.40;78.00
7196;DHT22;3639;51.308;5.624;2022-07-06T12:42:19;24.30;78.90
7196;DHT22;3639;51.308;5.624;2022-07-06T12:44:52;24.00;77.00
7196;DHT22;3639;51.308;5.624;2022-07-06T12:47:20;23.60;79.20
7196;DHT22;3639;51.308;5.624;2022-07-06T12:49:46;23.50;79.30
7196;DHT22;3639;51.308;5.624;2022-07-06T12:52:14;23.60;80.70
7196;DHT22;3639;51.308;5.624;2022-07-06T12:54:42;23.70;79.60
7196;DHT22;3639;51.308;5.624;2022-07-06T12:57:19;23.90;79.50
7196;DHT22;3639;51.308;5.624;2022-07-06T12:59:56;24.00;79.20
7196;DHT22;3639;51.308;5.624;2022-07-06T13:07:25;23.60;78.70
7196;DHT22;3639;51.308;5.624;2022-07-06T13:09:52;23.50;78.50
7196;DHT22;3639;51.308;5.624;2022-07-06T13:12:18;23.50;79.70
7196;DHT22;3639;51.308;5.624;2022-07-06T13:14:44;23.60;78.00
7196;DHT22;3639;51.308;5.624;2022-07-06T13:17:10;23.60;78.80
7196;DHT22;3639;51.308;5.624;2022-07-06T13:19:35;23.70;78.40
7196;DHT22;3639;51.308;5.624;2022-07-06T13:22:01;23.60;79.50
7196;DHT22;3639;51.308;5.624;2022-07-06T13:24:27;23.60;77.80
7196;DHT22;3639;51.308;5.624;2022-07-06T13:26:54;23.40;78.10
7196;DHT22;3639;51.308;5.624;2022-07-06T13:29:20;23.30;79.20
7196;DHT22;3639;51.308;5.624;2022-07-06T13:31:46;23.30;79.90
7196;DHT22;3639;51.308;5.624;2022-07-06T13:34:11;23.50;80.00
7196;DHT22;3639;51.308;5.624;2022-07-06T13:36:39;23.60;80.20
7196;DHT22;3639;51.308;5.624;2022-07-06T13:39:05;23.70;80.30
7196;DHT22;3639;51.308;5.624;2022-07-06T13:41:31;23.70;80.00
7196;DHT22;3639;51.308;5.624;2022-07-06T13:43:57;23.80;79.00
7196;DHT22;3639;51.308;5.624;2022-07-06T13:46:24;23.80;79.00
7196;DHT22;3639;51.308;5.624;2022-07-06T13:48:49;23.80;77.00
7196;DHT22;3639;51.308;5.624;2022-07-06T13:51:15;23.80;78.00
7196;DHT22;3639;51.308;5.624;2022-07-06T13:53:41;23.80;77.70
7196;DHT22;3639;51.308;5.624;2022-07-06T13:56:06;23.80;78.40
7196;DHT22;3639;51.308;5.624;2022-07-06T13:58:33;23.80;79.40
7196;DHT22;3639;51.308;5.624;2022-07-06T14:00:59;24.10;78.60
7196;DHT22;3639;51.308;5.624;2022-07-06T14:03:24;24.30;78.20
7196;DHT22;3639;51.308;5.624;2022-07-06T14:06:00;24.40;78.40
7196;DHT22;3639;51.308;5.624;2022-07-06T14:08:27;24.50;77.60
7196;DHT22;3639;51.308;5.624;2022-07-06T14:10:53;24.50;78.30
7196;DHT22;3639;51.308;5.624;2022-07-06T14:13:21;24.70;77.20
7196;DHT22;3639;51.308;5.624;2022-07-06T14:15:47;24.70;77.20
7196;DHT22;3639;51.308;5.624;2022-07-06T14:18:13;24.80;76.50
7196;DHT22;3639;51.308;5.624;2022-07-06T14:20:40;24.70;75.80
7196;DHT22;3639;51.308;5.624;2022-07-06T14:23:07;24.40;75.60
7196;DHT22;3639;51.308;5.624;2022-07-06T14:25:32;24.00;78.20
7196;DHT22;3639;51.308;5.624;2022-07-06T14:27:58;24.00;77.40
7196;DHT22;3639;51.308;5.624;2022-07-06T14:30:25;24.00;77.70
7196;DHT22;3639;51.308;5.624;2022-07-06T14:32:50;24.00;77.40
7196;DHT22;3639;51.308;5.624;2022-07-06T14:35:16;24.00;77.70
7196;DHT22;3639;51.308;5.624;2022-07-06T14:37:42;24.00;79.20
7196;DHT22;3639;51.308;5.624;2022-07-06T14:40:08;24.00;78.00
7196;DHT22;3639;51.308;5.624;2022-07-06T14:42:34;24.10;77.10
7196;DHT22;3639;51.308;5.624;2022-07-06T14:45:01;24.20;78.40
7196;DHT22;3639;51.308;5.624;2022-07-06T14:47:27;24.30;77.50
7196;DHT22;3639;51.308;5.624;2022-07-06T14:49:52;24.10;76.40
7196;DHT22;3639;51.308;5.624;2022-07-06T14:52:18;24.00;77.80
7196;DHT22;3639;51.308;5.624;2022-07-06T14:54:44;24.00;76.70
7196;DHT22;3639;51.308;5.624;2022-07-06T14:57:10;23.90;77.60
7196;DHT22;3639;51.308;5.624;2022-07-06T14:59:36;23.90;78.90
7196;DHT22;3639;51.308;5.624;2022-07-06T15:02:02;24.00;77.30
7196;DHT22;3639;51.308;5.624;2022-07-06T15:04:28;24.00;77.70
7196;DHT22;3639;51.308;5.624;2022-07-06T15:06:54;24.30;79.10
7196;DHT22;3639;51.308;5.624;2022-07-06T15:09:19;24.40;77.40
7196;DHT22;3639;51.308;5.624;2022-07-06T15:11:45;24.50;77.30
7196;DHT22;3639;51.308;5.624;2022-07-06T15:14:12;24.50;77.60
7196;DHT22;3639;51.308;5.624;2022-07-06T15:16:38;24.80;77.80
7196;DHT22;3639;51.308;5.624;2022-07-06T15:19:04;24.90;76.50
7196;DHT22;3639;51.308;5.624;2022-07-06T15:21:30;25.00;76.90
7196;DHT22;3639;51.308;5.624;2022-07-06T15:23:56;25.00;77.30
7196;DHT22;3639;51.308;5.624;2022-07-06T15:26:21;25.00;76.40
7196;DHT22;3639;51.308;5.624;2022-07-06T15:28:47;25.10;76.60
7196;DHT22;3639;51.308;5.624;2022-07-06T15:31:13;25.20;76.80
7196;DHT22;3639;51.308;5.624;2022-07-06T15:33:38;25.20;76.00
7196;DHT22;3639;51.308;5.624;2022-07-06T15:36:04;25.20;76.30
7196;DHT22;3639;51.308;5.624;2022-07-06T15:38:30;25.00;75.90
7196;DHT22;3639;51.308;5.624;2022-07-06T15:40:56;24.90;76.80
7196;DHT22;3639;51.308;5.624;2022-07-06T15:43:25;25.00;76.60
7196;DHT22;3639;51.308;5.624;2022-07-06T15:45:55;25.00;77.80
7196;DHT22;3639;51.308;5.624;2022-07-06T15:48:21;24.80;77.40
7196;DHT22;3639;51.308;5.624;2022-07-06T15:50:47;24.70;77.30
7196;DHT22;3639;51.308;5.624;2022-07-06T15:53:12;24.50;78.80
7196;DHT22;3639;51.308;5.624;2022-07-06T15:55:38;24.50;79.50
7196;DHT22;3639;51.308;5.624;2022-07-06T15:58:04;24.60;80.40
7196;DHT22;3639;51.308;5.624;2022-07-06T16:00:29;24.60;79.00
7196;DHT22;3639;51.308;5.624;2022-07-06T16:02:55;24.50;78.10
7196;DHT22;3639;51.308;5.624;2022-07-06T16:05:20;24.30;79.00
7196;DHT22;3639;51.308;5.624;2022-07-06T16:07:50;24.30;79.70
7196;DHT22;3639;51.308;5.624;2022-07-06T16:10:16;24.30;81.00
7196;DHT22;3639;51.308;5.624;2022-07-06T16:12:42;24.30;80.40
7196;DHT22;3639;51.308;5.624;2022-07-06T16:15:07;24.30;81.30
7196;DHT22;3639;51.308;5.624;2022-07-06T16:17:34;24.40;80.50